Pitt Greenville Airport Greenville US
ICAO: KPGV
IATA: PGV
Category: Medium
Scheduled Services: No

Elevation: 26 ft
TransAlt. 18000 ft.

Airport Communications:
AWOS 3:128.425
CLNC DEL:122.35
WASHINGTON CNTR:135.5
CTAF/UNICOM:122.8

KPGV Zoom In..

If Map Doesn't Load, Click Here

Runways:

(A) RW 02 length 6505 ft width 150 ft
---- / hdg 17

(B) RW 08 length 4997 ft width 150 ft
---- / hdg 76

(C) RW 15 length 2687 ft width 150 ft
---- / hdg 137

(D) RW 20 length 6505 ft width 150 ft
ILS 110.70 / hdg 197

(E) RW 26 length 4997 ft width 150 ft
---- / hdg 256

(F) RW 33 length 2687 ft width 150 ft
---- / hdg 317

Location; KPGV
Day. 26 / Time. 10.30 Zulu
* Altimeter: 30.07
* Temperature: 22° c. 71.6°f.
* Wind from: 000° Speed 00 kn.
Dewpoint: 22° c.
Visibility: 1/4 Statute Miles.
Clouds: Overcast 200 ft.
Conditions: Rain.

KPGV 261030Z AUTO 00000KT 1/4SM RA OVC002 22/22 A3007 RMK AO2


Wind - Calm.

 
 
jpsmedia.com for Web Design worldairports.se 2018   terms of use